Decoded Metar for LEVX (VIGO in SPAIN) (IATA:VGO) | Meteo·Mobile Aviation Weather
aviador You're here:

LEVX Decoded Metar

VIGO in SPAIN
Report Time2019-07-23 02:00:00
UTC Time2019-07-23 02:35:21
Flight Rules vfr VFR
WindVRB at 06 kt
Visibility9999 m
Phenomena:N/A
Clouds:N/A
Expected CloudBase > 1,200 ft AGL from Temp-Dew spread
CeilingNone
Temp20°C (ISA +7)
Dew Point17°C (83% RH)
QNH1015 hPa
Density Alt1,814 ft
Elevation840 ft
Report Wrong Elevation
Raw Report
LEVX 230200Z VRB06KT CAVOK 20/17 Q1015 NOSIG=

Extra information for LEVX:More info

Metar Taf Metar & Taf Last 4 Metars F.Rules Stats Wind Profile Meteogram Temp Stats Airport Information Weather charts Add Link Nearby VenuesMetar ALERT Operation Metar Decoded Social comments